Time;durP1;ratioP1;P1;durP2;ratioP2;P2;SDS_P1;SDS_P2;PMS_P1;PMS_P2;Temp;Humidity;BMP_temperature;BMP_pressure;BME280_temperature;BME280_humidity;BME280_pressure;Samples;Min_cycle;Max_cycle;Signal;HPM_P1;HPM_P2
2023/01/05 00:00:49;;;;;;;8.93;3.00;;;18.20;1.00;;;;;;5054336;28;20041;-38
2023/01/05 00:03:16;;;;;;;9.45;2.90;;;18.20;1.00;;;;;;5053878;28;20458;-39
2023/01/05 00:05:43;;;;;;;19.55;2.90;;;18.20;1.00;;;;;;5054352;28;20492;-38
2023/01/05 00:08:11;;;;;;;15.13;2.83;;;18.10;1.00;;;;;;5054405;28;20063;-38
2023/01/05 00:24:30;;;;;;;11.98;2.47;;;18.00;1.00;;;;;;5053813;28;20116;-39
2023/01/05 00:26:57;;;;;;;11.57;3.03;;;18.00;1.00;;;;;;5054006;28;20451;-38
2023/01/05 00:29:24;;;;;;;11.45;3.35;;;18.00;1.00;;;;;;5053857;28;20551;-38
2023/01/05 00:31:50;;;;;;;9.13;3.00;;;18.00;1.00;;;;;;5053790;28;20041;-39
2023/01/05 00:34:19;;;;;;;11.77;2.25;;;17.90;1.00;;;;;;5035389;28;20534;-39
2023/01/05 00:36:45;;;;;;;7.65;2.22;;;17.90;1.00;;;;;;5035852;28;20053;-38
2023/01/05 00:39:12;;;;;;;12.88;3.35;;;17.90;1.00;;;;;;5035499;28;20045;-38
2023/01/05 00:41:39;;;;;;;15.80;3.25;;;17.90;1.00;;;;;;5053726;28;20072;-38
2023/01/05 00:44:06;;;;;;;15.25;2.83;;;17.90;1.00;;;;;;5053330;28;20103;-38
2023/01/05 00:46:33;;;;;;;9.25;3.03;;;17.90;1.00;;;;;;5035386;28;20153;-38
2023/01/05 00:48:59;;;;;;;12.05;2.65;;;17.90;1.00;;;;;;5035637;28;20041;-38
2023/01/05 00:51:26;;;;;;;12.75;3.13;;;17.80;1.00;;;;;;5053481;28;20060;-38
2023/01/05 00:53:53;;;;;;;9.52;2.13;;;17.80;1.00;;;;;;5035061;28;20484;-38
2023/01/05 00:56:19;;;;;;;12.50;2.05;;;17.80;1.00;;;;;;5035265;28;20050;-38
2023/01/05 00:58:46;;;;;;;10.75;2.38;;;17.80;1.00;;;;;;5053345;28;20037;-38
2023/01/05 01:01:13;;;;;;;12.70;2.58;;;17.70;1.00;;;;;;5052787;28;20119;-38
2023/01/05 01:03:41;;;;;;;12.95;2.95;;;17.70;1.00;;;;;;5034898;28;20041;-38
2023/01/05 01:06:08;;;;;;;10.80;3.15;;;17.70;1.00;;;;;;5035199;28;20048;-38
2023/01/05 01:08:35;;;;;;;7.97;2.20;;;17.70;1.00;;;;;;5053166;28;20037;-38
2023/01/05 01:11:04;;;;;;;13.15;3.28;;;17.70;1.00;;;;;;5035212;28;20159;-38
2023/01/05 01:13:31;;;;;;;12.52;2.92;;;17.70;1.00;;;;;;5034717;28;20047;-38
2023/01/05 01:16:05;;;;;;;9.05;2.58;;;17.60;1.00;;;;;;5035042;28;20109;-38
2023/01/05 01:18:32;;;;;;;10.38;3.00;;;17.60;1.00;;;;;;5053114;28;20041;-38
2023/01/05 01:20:59;;;;;;;14.88;2.42;;;17.60;1.00;;;;;;5052818;28;20040;-38
2023/01/05 01:23:26;;;;;;;10.80;3.10;;;17.60;1.00;;;;;;5052483;28;20053;-38
2023/01/05 01:25:53;;;;;;;20.23;3.47;;;17.60;1.00;;;;;;5052885;28;20396;-38
2023/01/05 01:28:19;;;;;;;11.05;3.42;;;17.50;1.00;;;;;;5052741;28;20041;-38
2023/01/05 01:30:46;;;;;;;12.40;2.30;;;17.60;1.00;;;;;;5034799;28;20074;-38
2023/01/05 01:33:13;;;;;;;11.80;3.55;;;17.50;1.00;;;;;;5034291;28;20045;-38
2023/01/05 01:35:40;;;;;;;9.60;2.25;;;17.50;1.00;;;;;;5034713;28;20048;-38
2023/01/05 01:38:07;;;;;;;12.45;2.95;;;17.50;1.00;;;;;;5034757;28;20047;-38
2023/01/05 01:40:41;;;;;;;14.05;2.65;;;17.40;1.00;;;;;;5034510;28;20564;-38
2023/01/05 01:43:35;;;;;;;8.43;2.55;;;17.50;1.00;;;;;;5052146;28;20048;-38
2023/01/05 01:46:02;;;;;;;19.77;3.75;;;17.40;1.00;;;;;;5021162;28;20508;-38
2023/01/05 01:48:30;;;;;;;12.77;3.40;;;17.40;1.00;;;;;;5052401;28;20052;-38
2023/01/05 01:50:57;;;;;;;11.15;2.55;;;17.40;1.00;;;;;;5051774;28;20045;-38
2023/01/05 01:53:37;;;;;;;8.93;1.85;;;17.40;1.00;;;;;;5034043;28;20106;-38
2023/01/05 01:56:08;;;;;;;13.82;3.20;;;17.40;1.00;;;;;;5034331;28;20073;-38
2023/01/05 01:58:36;;;;;;;11.02;2.28;;;17.40;1.00;;;;;;5034662;28;20055;-38
2023/01/05 02:01:03;;;;;;;9.57;2.65;;;17.30;1.00;;;;;;5034247;28;20064;-38
2023/01/05 02:03:30;;;;;;;11.45;2.83;;;17.30;1.00;;;;;;5033782;28;20128;-38
2023/01/05 02:05:58;;;;;;;8.77;1.75;;;17.30;1.00;;;;;;5034040;28;20040;-38
2023/01/05 02:08:30;;;;;;;12.07;2.92;;;17.30;1.00;;;;;;5034241;28;20053;-38
2023/01/05 02:11:31;;;;;;;7.82;2.70;;;17.30;1.00;;;;;;5034223;28;20392;-38
2023/01/05 02:14:01;;;;;;;11.05;2.95;;;17.30;1.00;;;;;;5033635;28;20462;-38
2023/01/05 02:17:10;;;;;;;12.85;2.60;;;17.30;1.00;;;;;;5017825;28;20049;-38
2023/01/05 02:19:55;;;;;;;9.55;2.45;;;17.20;1.00;;;;;;4987281;28;20048;-38
2023/01/05 02:23:13;;;;;;;9.88;2.53;;;17.20;1.00;;;;;;5033160;28;20059;-39
2023/01/05 02:26:17;;;;;;;12.30;2.53;;;17.20;1.00;;;;;;4970717;28;20050;-38
2023/01/05 02:29:21;;;;;;;8.45;2.13;;;17.20;1.00;;;;;;4954657;28;20047;-38
2023/01/05 02:32:12;;;;;;;11.00;2.40;;;17.10;1.00;;;;;;5032533;28;20049;-38
2023/01/05 02:34:55;;;;;;;13.15;3.13;;;17.10;1.00;;;;;;5033689;28;20088;-38
2023/01/05 02:37:29;;;;;;;10.90;2.55;;;17.10;1.00;;;;;;5033843;28;20048;-38
2023/01/05 02:40:02;;;;;;;10.98;2.15;;;17.10;1.00;;;;;;5033815;28;20052;-38
2023/01/05 02:42:37;;;;;;;12.90;2.03;;;17.10;1.00;;;;;;5033615;28;20084;-39
2023/01/05 02:45:06;;;;;;;11.35;2.78;;;17.10;1.00;;;;;;5051674;28;20048;-38
2023/01/05 02:47:37;;;;;;;11.57;1.88;;;17.10;1.00;;;;;;5033572;28;20144;-38
2023/01/05 02:50:15;;;;;;;;;;;17.10;1.00;;;;;;5034120;28;20099;-38
2023/01/05 02:52:59;;;;;;;11.02;2.78;;;17.10;1.00;;;;;;5033297;28;20375;-38
2023/01/05 02:55:43;;;;;;;14.55;3.00;;;17.00;1.00;;;;;;5033628;28;20152;-38
2023/01/05 02:58:24;;;;;;;14.02;3.45;;;17.00;1.00;;;;;;5033637;28;20048;-38
2023/01/05 03:00:59;;;;;;;10.95;3.28;;;17.00;1.00;;;;;;5033540;28;20043;-38
2023/01/05 03:03:34;;;;;;;12.68;2.80;;;17.00;1.00;;;;;;5036883;28;20131;-38
2023/01/05 03:06:08;;;;;;;7.45;2.22;;;17.00;1.00;;;;;;5055480;28;20539;-38
2023/01/05 03:08:44;;;;;;;9.07;2.28;;;17.00;1.00;;;;;;5037594;28;20387;-38
2023/01/05 03:14:07;;;;;;;11.30;2.97;;;16.90;1.00;;;;;;5037040;28;20045;-38
2023/01/05 03:16:36;;;;;;;15.32;3.17;;;16.90;1.00;;;;;;5037200;28;20083;-38
2023/01/05 03:36:29;;;;;;;11.98;2.88;;;16.80;1.00;;;;;;5057108;28;20039;-38
2023/01/05 03:38:59;;;;;;;11.85;2.92;;;16.80;1.00;;;;;;5061676;28;20075;-38
2023/01/05 03:41:29;;;;;;;9.60;2.63;;;16.80;1.00;;;;;;5071958;28;20115;-38
2023/01/05 03:43:56;;;;;;;12.68;2.70;;;16.70;1.00;;;;;;5027780;28;20393;-38
2023/01/05 03:46:23;;;;;;;11.38;2.97;;;16.70;1.00;;;;;;5054104;28;20049;-38
2023/01/05 03:48:51;;;;;;;14.25;2.85;;;16.70;1.00;;;;;;5056587;28;20041;-38
2023/01/05 03:51:19;;;;;;;12.27;2.70;;;16.70;1.00;;;;;;5056644;28;20053;-38
2023/01/05 03:53:46;;;;;;;15.00;3.53;;;16.70;1.00;;;;;;5056246;28;20527;-38
2023/01/05 03:56:13;;;;;;;16.75;3.10;;;16.70;1.00;;;;;;5068188;28;20085;-38
2023/01/05 03:58:40;;;;;;;12.43;2.35;;;16.70;1.00;;;;;;5048141;28;20048;-38
2023/01/05 04:01:07;;;;;;;11.68;3.08;;;16.70;1.00;;;;;;5056447;28;20388;-38
2023/01/05 04:03:34;;;;;;;11.98;2.53;;;16.70;1.00;;;;;;5073838;28;20181;-38
2023/01/05 04:06:04;;;;;;;11.10;2.55;;;16.70;1.00;;;;;;5056628;28;20052;-38
2023/01/05 04:08:33;;;;;;;9.45;2.30;;;16.70;1.00;;;;;;5056312;28;20680;-39
2023/01/05 04:11:16;;;;;;;14.07;3.60;;;16.70;1.00;;;;;;5056082;28;20052;-38
2023/01/05 04:13:50;;;;;;;15.13;4.47;;;16.70;1.00;;;;;;5055253;28;20075;-38
2023/01/05 04:16:18;;;;;;;9.60;2.92;;;16.70;1.00;;;;;;5056161;28;20070;-38
2023/01/05 04:18:46;;;;;;;13.98;3.42;;;16.60;1.00;;;;;;5056125;28;20049;-38
2023/01/05 04:21:16;;;;;;;16.30;2.80;;;16.60;1.00;;;;;;5055836;28;20044;-38
2023/01/05 04:23:43;;;;;;;11.35;2.65;;;16.60;1.00;;;;;;5055646;28;20458;-38
2023/01/05 04:26:10;;;;;;;13.23;3.13;;;16.60;1.00;;;;;;5055903;28;20045;-38
2023/01/05 04:28:37;;;;;;;16.30;3.10;;;16.60;1.00;;;;;;5073877;28;20078;-38
2023/01/05 04:31:04;;;;;;;9.48;2.30;;;16.60;1.00;;;;;;5055952;28;20334;-38
2023/01/05 04:33:32;;;;;;;13.85;2.25;;;16.60;1.00;;;;;;5039224;28;20450;-38
2023/01/05 04:36:00;;;;;;;11.75;3.13;;;16.60;1.00;;;;;;5055988;28;20071;-38
2023/01/05 04:38:30;;;;;;;17.73;3.08;;;16.60;1.00;;;;;;5055658;28;20056;-38
2023/01/05 04:40:57;;;;;;;13.85;3.00;;;16.60;1.00;;;;;;5055677;28;20048;-38
2023/01/05 04:43:25;;;;;;;17.05;3.75;;;16.60;1.00;;;;;;5039050;28;20076;-38
2023/01/05 04:45:53;;;;;;;13.00;4.10;;;16.60;1.00;;;;;;5055619;28;20044;-38
2023/01/05 04:48:23;;;;;;;14.07;2.78;;;16.60;1.00;;;;;;5039182;28;20051;-38
2023/01/05 04:50:54;;;;;;;7.07;2.53;;;16.50;1.00;;;;;;5055541;28;20040;-38
2023/01/05 04:53:27;;;;;;;12.57;2.80;;;16.50;1.00;;;;;;5055091;28;20127;-38
2023/01/05 04:55:54;;;;;;;11.27;2.63;;;16.50;1.00;;;;;;5055241;28;20101;-38
2023/01/05 04:58:22;;;;;;;13.68;3.20;;;16.50;1.00;;;;;;5055308;28;20439;-38
2023/01/05 05:00:50;;;;;;;13.02;2.72;;;16.50;1.00;;;;;;5055117;28;20040;-38
2023/01/05 05:03:17;;;;;;;14.35;2.90;;;16.50;1.00;;;;;;5063629;22;21217;-34
2023/01/05 05:05:44;;;;;;;12.23;2.53;;;16.50;1.00;;;;;;5076782;28;20037;-31
2023/01/05 05:08:12;;;;;;;14.50;2.40;;;16.50;1.00;;;;;;5053264;28;20060;-32
2023/01/05 05:10:39;;;;;;;12.02;2.47;;;16.50;1.00;;;;;;5052564;28;20403;-32
2023/01/05 05:13:07;;;;;;;12.13;2.50;;;16.50;1.00;;;;;;5054109;28;20044;-32
2023/01/05 05:15:34;;;;;;;15.73;3.35;;;16.40;1.00;;;;;;5054856;28;20213;-32
2023/01/05 05:18:02;;;;;;;9.48;3.45;;;16.40;1.00;;;;;;5055004;28;20041;-32
2023/01/05 05:20:36;;;;;;;14.80;4.03;;;16.40;1.00;;;;;;5040637;28;20514;-32
2023/01/05 05:23:03;;;;;;;13.15;2.95;;;16.40;1.00;;;;;;5035308;28;20043;-32
2023/01/05 05:25:32;;;;;;;13.13;2.28;;;16.40;1.00;;;;;;5030650;28;20064;-32
2023/01/05 05:27:59;;;;;;;16.35;3.17;;;16.40;1.00;;;;;;5060416;28;20044;-32
2023/01/05 05:30:25;;;;;;;12.98;2.85;;;16.40;1.00;;;;;;5072585;28;20040;-32
2023/01/05 05:32:52;;;;;;;15.18;3.80;;;16.40;1.00;;;;;;5072325;28;20044;-32
2023/01/05 05:35:19;;;;;;;11.45;2.53;;;16.30;1.00;;;;;;5072815;28;20041;-32
2023/01/05 05:37:46;;;;;;;8.43;3.42;;;16.30;1.00;;;;;;5072543;28;20036;-32
2023/01/05 05:40:20;;;;;;;10.18;2.70;;;16.30;1.00;;;;;;5072463;28;20037;-32
2023/01/05 05:42:46;;;;;;;9.80;2.63;;;16.30;1.00;;;;;;5072171;28;20075;-32
2023/01/05 05:45:13;;;;;;;10.13;2.83;;;16.30;1.00;;;;;;5072358;28;20040;-32
2023/01/05 05:47:41;;;;;;;14.30;2.40;;;16.30;1.00;;;;;;5072396;28;20515;-32
2023/01/05 05:50:09;;;;;;;14.32;2.88;;;16.30;1.00;;;;;;5068365;28;20045;-32
2023/01/05 05:52:36;;;;;;;15.43;3.22;;;16.30;1.00;;;;;;5053032;28;20052;-31
2023/01/05 05:55:03;;;;;;;14.60;2.55;;;16.30;1.00;;;;;;5069128;28;20037;-32
2023/01/05 05:57:29;;;;;;;10.27;2.53;;;16.30;1.00;;;;;;5071560;28;20047;-32
2023/01/05 05:59:56;;;;;;;12.73;2.63;;;16.30;1.00;;;;;;5053728;28;20068;-32
2023/01/05 06:02:23;;;;;;;11.25;2.42;;;16.30;1.00;;;;;;5071361;28;20079;-32
2023/01/05 06:04:50;;;;;;;14.32;3.15;;;16.30;1.00;;;;;;5071893;28;20052;-32
2023/01/05 06:07:16;;;;;;;8.65;1.77;;;16.30;1.00;;;;;;5072052;28;20091;-32
2023/01/05 06:09:43;;;;;;;15.07;2.75;;;16.30;1.00;;;;;;5072176;28;20063;-31
2023/01/05 06:12:10;;;;;;;14.00;2.92;;;16.20;1.00;;;;;;5071839;28;20492;-31
2023/01/05 06:14:37;;;;;;;13.05;2.65;;;16.20;1.00;;;;;;5071668;28;20126;-32
2023/01/05 06:17:03;;;;;;;12.95;2.88;;;16.20;1.00;;;;;;5072017;28;20450;-31
2023/01/05 06:19:30;;;;;;;18.15;3.00;;;16.20;1.00;;;;;;5071932;28;20047;-32
2023/01/05 06:21:57;;;;;;;12.63;2.70;;;16.20;1.00;;;;;;5071782;28;20087;-32
2023/01/05 06:24:24;;;;;;;13.27;3.10;;;16.20;1.00;;;;;;5053565;28;20052;-31
2023/01/05 06:26:50;;;;;;;6.75;2.67;;;16.20;1.00;;;;;;5054080;28;20044;-31
2023/01/05 06:29:17;;;;;;;18.27;3.45;;;16.20;1.00;;;;;;5071748;28;20052;-31
2023/01/05 06:31:44;;;;;;;11.35;2.70;;;16.20;1.00;;;;;;5071804;28;20047;-31
2023/01/05 06:34:11;;;;;;;13.30;3.78;;;16.20;1.00;;;;;;5071405;28;20051;-31
2023/01/05 06:36:37;;;;;;;10.80;3.10;;;16.20;1.00;;;;;;5071502;28;20098;-32
2023/01/05 06:39:04;;;;;;;12.98;2.53;;;16.20;1.00;;;;;;5071776;28;20060;-32
2023/01/05 06:41:34;;;;;;;13.98;2.75;;;16.20;1.00;;;;;;5071744;28;20094;-31
2023/01/05 06:44:01;;;;;;;9.00;2.22;;;16.20;1.00;;;;;;5071534;28;20056;-31
2023/01/05 06:46:27;;;;;;;12.10;2.80;;;16.10;1.00;;;;;;5071590;28;20495;-32
2023/01/05 06:48:54;;;;;;;9.05;2.25;;;16.10;1.00;;;;;;5071532;28;20512;-31
2023/01/05 06:51:21;;;;;;;10.40;2.45;;;16.10;1.00;;;;;;5071632;28;20094;-31
2023/01/05 06:53:48;;;;;;;8.70;1.88;;;16.10;1.00;;;;;;5071210;28;20098;-31
2023/01/05 06:56:15;;;;;;;10.48;2.33;;;16.10;1.00;;;;;;5071547;28;20124;-31
2023/01/05 06:58:42;;;;;;;10.85;2.55;;;16.10;1.00;;;;;;5071489;28;20549;-32
2023/01/05 07:01:08;;;;;;;9.98;2.15;;;16.10;1.00;;;;;;5071530;28;20415;-31
2023/01/05 07:03:35;;;;;;;12.40;2.17;;;16.10;1.00;;;;;;5071026;28;20037;-32
2023/01/05 07:06:03;;;;;;;13.23;2.90;;;16.10;1.00;;;;;;5071557;28;20040;-32
2023/01/05 07:08:29;;;;;;;13.60;3.58;;;16.10;1.00;;;;;;5053451;28;20114;-31
2023/01/05 07:10:56;;;;;;;10.73;2.70;;;16.10;1.00;;;;;;5071473;28;20037;-31
2023/01/05 07:13:23;;;;;;;9.40;2.75;;;16.10;1.00;;;;;;5053216;28;20381;-31
2023/01/05 07:15:50;;;;;;;9.13;2.28;;;16.10;1.00;;;;;;5071415;28;20043;-31
2023/01/05 07:18:16;;;;;;;9.30;2.60;;;16.10;1.00;;;;;;5053327;28;20446;-31
2023/01/05 07:20:43;;;;;;;8.55;2.78;;;16.10;1.00;;;;;;5071523;28;20446;-32
2023/01/05 07:23:10;;;;;;;16.13;4.13;;;16.10;1.00;;;;;;5071021;28;20064;-32
2023/01/05 07:25:36;;;;;;;9.50;2.17;;;16.10;1.00;;;;;;5071322;28;20102;-31
2023/01/05 07:28:03;;;;;;;9.68;2.08;;;16.00;1.00;;;;;;5070167;28;20045;-32
2023/01/05 07:30:30;;;;;;;9.32;2.92;;;16.00;1.00;;;;;;5071203;28;20043;-32
2023/01/05 07:32:59;;;;;;;11.98;2.92;;;16.00;1.00;;;;;;5070643;28;20044;-31
2023/01/05 07:35:27;;;;;;;11.05;2.10;;;16.00;1.00;;;;;;5053336;28;20047;-31
2023/01/05 07:37:57;;;;;;;11.48;2.97;;;16.00;1.00;;;;;;5071152;28;20036;-31
2023/01/05 07:40:25;;;;;;;7.72;2.22;;;16.00;1.00;;;;;;5071291;28;20047;-32
2023/01/05 07:42:53;;;;;;;14.90;2.40;;;16.00;1.00;;;;;;5052736;28;20412;-31
2023/01/05 07:45:20;;;;;;;13.43;2.85;;;16.00;1.00;;;;;;5070922;28;20082;-32
2023/01/05 07:47:47;;;;;;;9.10;2.03;;;16.00;1.00;;;;;;5071858;28;20437;-31
2023/01/05 07:50:13;;;;;;;7.82;2.22;;;16.00;1.00;;;;;;5074557;28;20094;-31
2023/01/05 07:52:40;;;;;;;13.27;2.38;;;16.00;1.00;;;;;;5074210;28;20048;-31
2023/01/05 07:55:07;;;;;;;7.32;2.28;;;16.00;1.00;;;;;;5073633;28;20106;-32
2023/01/05 07:57:35;;;;;;;11.48;2.63;;;15.90;1.00;;;;;;5071443;28;20045;-32
2023/01/05 08:00:02;;;;;;;10.73;1.67;;;16.00;1.00;;;;;;5069949;28;20215;-31
2023/01/05 08:02:37;;;;;;;9.02;2.63;;;15.90;1.00;;;;;;5069458;28;20041;-31
2023/01/05 08:05:04;;;;;;;10.00;2.25;;;15.90;1.00;;;;;;5068501;28;20135;-31
2023/01/05 08:07:31;;;;;;;10.10;2.20;;;15.90;1.00;;;;;;5071418;28;20036;-31
2023/01/05 08:15:28;;;;;;;9.57;2.25;;;15.90;1.00;;;;;;5074010;28;20685;-31
2023/01/05 08:17:55;;;;;;;5.10;1.80;;;15.90;1.00;;;;;;5074136;28;20037;-32
2023/01/05 08:20:22;;;;;;;13.90;2.72;;;15.90;1.00;;;;;;5074055;28;20040;-31
2023/01/05 08:22:50;;;;;;;8.95;1.80;;;15.90;1.00;;;;;;5073533;28;20032;-32
2023/01/05 08:25:17;;;;;;;11.10;2.20;;;15.90;1.00;;;;;;5073887;28;20048;-31
2023/01/05 08:27:45;;;;;;;7.25;2.05;;;15.90;1.00;;;;;;5056101;28;20389;-31
2023/01/05 08:30:12;;;;;;;10.40;2.80;;;15.90;1.00;;;;;;5073877;28;20427;-31
2023/01/05 08:32:39;;;;;;;9.15;2.97;;;15.90;1.00;;;;;;5073418;28;20044;-32
2023/01/05 08:35:07;;;;;;;10.90;2.78;;;15.90;1.00;;;;;;5073608;28;20041;-31
2023/01/05 08:37:38;;;;;;;7.68;2.58;;;15.90;1.00;;;;;;5073688;28;20393;-32
2023/01/05 08:40:05;;;;;;;13.75;2.95;;;15.80;1.00;;;;;;5073633;28;20037;-31
2023/01/05 08:42:34;;;;;;;8.15;1.55;;;15.80;1.00;;;;;;5073390;28;20112;-31
2023/01/05 08:45:00;;;;;;;8.75;2.90;;;15.80;1.00;;;;;;5073325;28;20045;-31
2023/01/05 08:47:27;;;;;;;11.90;1.95;;;15.80;1.00;;;;;;5055528;28;20048;-31
2023/01/05 08:49:54;;;;;;;7.82;2.05;;;15.80;1.00;;;;;;5073362;28;20064;-31
2023/01/05 08:52:22;;;;;;;9.90;1.70;;;15.80;1.00;;;;;;5073072;28;20144;-31
2023/01/05 08:54:49;;;;;;;11.77;3.08;;;15.80;1.00;;;;;;5073106;28;20036;-32
2023/01/05 08:57:16;;;;;;;11.25;3.30;;;15.80;1.00;;;;;;5073216;28;20075;-32
2023/01/05 08:59:42;;;;;;;9.63;2.03;;;15.80;1.00;;;;;;5055088;28;20060;-31
2023/01/05 09:02:11;;;;;;;6.18;1.73;;;15.80;1.00;;;;;;5073523;28;20040;-31
2023/01/05 09:04:38;;;;;;;9.20;2.38;;;15.80;1.00;;;;;;5072774;28;20048;-31
2023/01/05 09:07:05;;;;;;;8.75;2.45;;;15.80;1.00;;;;;;5073096;28;20048;-31
2023/01/05 09:09:32;;;;;;;6.90;2.35;;;15.80;1.00;;;;;;5073063;28;20223;-31
2023/01/05 09:11:58;;;;;;;10.35;2.58;;;15.80;1.00;;;;;;5072930;28;20041;-32
2023/01/05 09:14:25;;;;;;;9.02;2.47;;;15.80;1.00;;;;;;5072707;28;20451;-32
2023/01/05 09:16:52;;;;;;;6.45;1.98;;;15.80;1.00;;;;;;5072815;28;20102;-32
2023/01/05 09:19:35;;;;;;;7.85;1.42;;;15.80;1.00;;;;;;5057575;28;20041;-32
2023/01/05 09:22:02;;;;;;;8.77;1.83;;;15.80;1.00;;;;;;5072713;28;20036;-32
2023/01/05 09:24:29;;;;;;;9.77;2.05;;;15.80;1.00;;;;;;5072480;28;20059;-32
2023/01/05 09:26:56;;;;;;;10.68;2.92;;;15.70;1.00;;;;;;5072527;28;20036;-32
2023/01/05 09:29:23;;;;;;;9.88;3.45;;;15.80;1.00;;;;;;5072645;28;20109;-31
2023/01/05 09:31:50;;;;;;;7.50;2.15;;;15.70;1.00;;;;;;5072560;28;20486;-31
2023/01/05 09:34:18;;;;;;;9.30;2.13;;;15.70;1.00;;;;;;5072190;28;20068;-32
2023/01/05 09:36:45;;;;;;;7.35;1.80;;;15.70;1.00;;;;;;5072614;28;20525;-31
2023/01/05 09:39:11;;;;;;;6.03;1.50;;;15.70;1.00;;;;;;5054534;28;20407;-31
2023/01/05 09:41:38;;;;;;;6.43;1.20;;;15.70;1.00;;;;;;5072498;28;20098;-31
2023/01/05 09:44:29;;;;;;;6.40;1.80;;;15.70;1.00;;;;;;5071917;28;20048;-31
2023/01/05 09:47:08;;;;;;;9.50;2.17;;;15.70;1.00;;;;;;5072350;28;20502;-31
2023/01/05 09:49:37;;;;;;;10.80;2.72;;;15.70;1.00;;;;;;5054576;28;20040;-32
2023/01/05 09:52:08;;;;;;;6.50;2.03;;;15.70;1.00;;;;;;5054200;28;20051;-31
2023/01/05 09:54:37;;;;;;;9.38;1.85;;;15.70;1.00;;;;;;5053804;28;20067;-31
2023/01/05 09:57:06;;;;;;;5.80;1.85;;;15.70;1.00;;;;;;5072223;28;20492;-32
2023/01/05 09:59:39;;;;;;;11.00;2.57;;;15.70;1.00;;;;;;5072138;28;20048;-31
2023/01/05 10:02:25;;;;;;;11.57;2.72;;;15.70;1.00;;;;;;5072144;28;20097;-31
2023/01/05 10:04:54;;;;;;;9.02;1.92;;;15.70;1.00;;;;;;5071775;28;20064;-31
2023/01/05 10:07:41;;;;;;;11.35;2.25;;;15.70;1.00;;;;;;5072039;28;20044;-32
2023/01/05 10:10:40;;;;;;;7.40;1.70;;;15.70;1.00;;;;;;5071543;28;20058;-31
2023/01/05 10:13:16;;;;;;;6.60;1.95;;;15.70;1.00;;;;;;5071714;28;20048;-31
2023/01/05 10:15:47;;;;;;;7.45;2.03;;;15.70;1.00;;;;;;5071867;28;20056;-31
2023/01/05 10:18:18;;;;;;;8.10;1.45;;;15.70;1.00;;;;;;5071896;28;20046;-31
2023/01/05 10:21:13;;;;;;;8.27;1.73;;;15.70;1.00;;;;;;5071746;28;20041;-32
2023/01/05 10:23:41;;;;;;;8.52;2.15;;;15.70;1.00;;;;;;5071405;28;20036;-31
2023/01/05 10:26:16;;;;;;;8.02;1.83;;;15.70;1.00;;;;;;5071757;28;20098;-31
2023/01/05 10:29:08;;;;;;;9.38;1.70;;;15.70;1.00;;;;;;5053755;28;20094;-32
2023/01/05 10:31:48;;;;;;;7.93;2.17;;;15.70;1.00;;;;;;5071799;28;20045;-31
2023/01/05 10:34:42;;;;;;;12.27;2.00;;;15.70;1.00;;;;;;5071312;28;20076;-31
2023/01/05 10:37:45;;;;;;;8.35;2.17;;;15.70;1.00;;;;;;5071745;28;20149;-31
2023/01/05 10:40:21;;;;;;;10.70;2.63;;;15.70;1.00;;;;;;5071614;28;20115;-31
2023/01/05 10:43:03;;;;;;;4.38;1.63;;;15.70;1.00;;;;;;5071376;28;20041;-32
2023/01/05 10:45:31;;;;;;;5.95;1.90;;;15.60;1.00;;;;;;5071590;28;20101;-31
2023/01/05 10:47:59;;;;;;;8.23;1.77;;;15.60;1.00;;;;;;5071577;28;20048;-31
2023/01/05 10:50:38;;;;;;;11.30;2.03;;;15.60;1.00;;;;;;5071580;28;20079;-32
2023/01/05 10:53:13;;;;;;;6.03;1.88;;;15.60;1.00;;;;;;5070929;28;20514;-31
2023/01/05 10:55:56;;;;;;;7.25;1.27;;;15.60;1.00;;;;;;5053334;28;20496;-32
2023/01/05 10:58:29;;;;;;;8.20;1.87;;;15.60;1.00;;;;;;5071653;28;20047;-32
2023/01/05 11:01:00;;;;;;;6.65;1.27;;;15.60;1.00;;;;;;5053735;28;20322;-32
2023/01/05 11:03:39;;;;;;;12.00;2.83;;;15.60;1.00;;;;;;5053111;28;20510;-31
2023/01/05 11:06:29;;;;;;;8.00;2.08;;;15.60;1.00;;;;;;5071396;28;20041;-32
2023/01/05 11:09:25;;;;;;;11.05;1.95;;;15.60;1.00;;;;;;5071449;28;20470;-31
2023/01/05 11:11:57;;;;;;;11.05;1.92;;;15.70;1.00;;;;;;5058726;28;20060;-31
2023/01/05 11:14:25;;;;;;;8.40;2.20;;;15.60;1.00;;;;;;5071006;28;20086;-31
2023/01/05 11:17:00;;;;;;;4.93;1.08;;;15.60;1.00;;;;;;5071428;28;20070;-31
2023/01/05 11:19:34;;;;;;;10.00;2.72;;;15.60;1.00;;;;;;5071362;28;20041;-31
2023/01/05 11:22:01;;;;;;;10.38;1.55;;;15.60;1.00;;;;;;5071121;28;20052;-31
2023/01/05 11:24:35;;;;;;;9.85;2.40;;;15.60;1.00;;;;;;5074440;28;20036;-31
2023/01/05 11:27:18;;;;;;;11.45;1.50;;;15.60;1.00;;;;;;5074998;28;20040;-31
2023/01/05 11:30:14;;;;;;;10.60;1.98;;;15.60;1.00;;;;;;5074959;28;20086;-31
2023/01/05 11:32:45;;;;;;;4.95;1.70;;;15.60;1.00;;;;;;5054810;28;20549;-32
2023/01/05 11:35:18;;;;;;;9.60;1.55;;;15.60;1.00;;;;;;5074703;28;20074;-31
2023/01/05 11:37:45;;;;;;;6.75;1.52;;;15.60;1.00;;;;;;5074837;28;20049;-31
2023/01/05 11:40:17;;;;;;;10.88;1.88;;;15.60;1.00;;;;;;5074811;28;20040;-32
2023/01/05 11:42:45;;;;;;;5.45;1.85;;;15.60;1.00;;;;;;5074412;28;20033;-32
2023/01/05 11:45:28;;;;;;;7.10;2.13;;;15.60;1.00;;;;;;5074691;28;20493;-31
2023/01/05 11:47:57;;;;;;;10.02;2.15;;;15.60;1.00;;;;;;5056901;28;20052;-31
2023/01/05 11:50:27;;;;;;;6.82;1.80;;;15.60;1.00;;;;;;5074590;28;20119;-31
2023/01/05 11:52:59;;;;;;;9.20;2.42;;;15.60;1.00;;;;;;5074109;28;20135;-32
2023/01/05 11:55:29;;;;;;;8.07;2.70;;;15.60;1.00;;;;;;5074320;28;20128;-31
2023/01/05 11:58:24;;;;;;;10.98;2.65;;;15.60;1.00;;;;;;5074668;28;20094;-31
2023/01/05 12:01:13;;;;;;;8.57;1.50;;;15.60;1.00;;;;;;5056452;28;20048;-31
2023/01/05 12:04:03;;;;;;;5.90;1.38;;;15.60;1.00;;;;;;5073919;28;20079;-31
2023/01/05 12:07:07;;;;;;;11.45;2.25;;;15.60;1.00;;;;;;5074240;28;20094;-31
2023/01/05 12:09:46;;;;;;;6.10;1.52;;;15.60;1.00;;;;;;5074388;28;20545;-31
2023/01/05 12:12:29;;;;;;;6.38;1.35;;;15.60;1.00;;;;;;5056006;28;20484;-32
2023/01/05 12:15:29;;;;;;;6.10;1.63;;;15.60;1.00;;;;;;5073984;28;20044;-31
2023/01/05 12:18:22;;;;;;;10.38;1.73;;;15.60;1.00;;;;;;5074162;28;20098;-31
2023/01/05 12:21:03;;;;;;;7.38;2.08;;;15.60;1.00;;;;;;5074014;28;20070;-31
2023/01/05 12:23:51;;;;;;;9.00;2.00;;;15.60;1.00;;;;;;5073772;28;20055;-31
2023/01/05 12:26:50;;;;;;;4.65;1.25;;;15.60;1.00;;;;;;5056109;28;20446;-31
2023/01/05 12:29:43;;;;;;;8.10;2.60;;;15.60;1.00;;;;;;5045505;28;20060;-32
2023/01/05 12:32:57;;;;;;;8.20;2.03;;;15.60;1.00;;;;;;5073798;28;20460;-31
2023/01/05 12:36:10;;;;;;;5.55;1.70;;;15.60;1.00;;;;;;5058778;28;20082;-31
2023/01/05 12:39:04;;;;;;;11.25;3.60;;;15.60;1.00;;;;;;5073758;28;20052;-31
2023/01/05 12:41:51;;;;;;;7.00;1.67;;;15.60;1.00;;;;;;5073670;28;20052;-31
2023/01/05 12:44:37;;;;;;;9.60;1.55;;;15.60;1.00;;;;;;5073357;28;20045;-32
2023/01/05 12:47:25;;;;;;;8.38;1.42;;;15.60;1.00;;;;;;5055501;28;20044;-31
2023/01/05 12:50:01;;;;;;;5.15;1.48;;;15.60;1.00;;;;;;5073531;28;20040;-31
2023/01/05 12:52:38;;;;;;;7.95;1.77;;;15.60;1.00;;;;;;5073330;28;20052;-31
2023/01/05 12:55:28;;;;;;;6.82;2.08;;;15.60;1.00;;;;;;5073350;28;20120;-31
2023/01/05 12:58:09;;;;;;;8.18;1.45;;;15.60;1.00;;;;;;5073169;28;20067;-31
2023/01/05 13:00:46;;;;;;;9.25;2.03;;;15.60;1.00;;;;;;5073333;28;20072;-31
2023/01/05 13:03:22;;;;;;;7.85;1.52;;;15.60;1.00;;;;;;5072769;28;20077;-32
2023/01/05 13:06:10;;;;;;;8.57;2.05;;;15.60;1.00;;;;;;5073070;28;20053;-31
2023/01/05 13:09:04;;;;;;;9.45;1.70;;;15.60;1.00;;;;;;5073277;28;20044;-31
2023/01/05 13:11:37;;;;;;;9.75;1.85;;;15.60;1.00;;;;;;5064942;28;20063;-31
2023/01/05 13:14:10;;;;;;;7.10;2.05;;;15.60;1.00;;;;;;5072696;28;20510;-31
2023/01/05 13:16:40;;;;;;;8.95;2.00;;;15.60;1.00;;;;;;5072847;28;20111;-31
2023/01/05 13:19:45;;;;;;;8.18;2.28;;;15.60;1.00;;;;;;5073050;28;20032;-32
2023/01/05 13:22:24;;;;;;;7.28;2.22;;;15.60;1.00;;;;;;5072803;28;20066;-31
2023/01/05 13:25:04;;;;;;;7.47;2.10;;;15.60;1.00;;;;;;5072566;28;20107;-31
2023/01/05 13:27:31;;;;;;;11.43;2.38;;;15.60;1.00;;;;;;5073060;28;20049;-31
2023/01/05 13:30:01;;;;;;;8.18;1.85;;;15.60;1.00;;;;;;5072795;28;20036;-31
2023/01/05 13:33:08;;;;;;;6.70;1.70;;;15.60;1.00;;;;;;5072620;28;20407;-31
2023/01/05 13:35:57;;;;;;;5.75;1.55;;;15.60;1.00;;;;;;5072485;28;20052;-32
2023/01/05 13:38:53;;;;;;;11.05;1.80;;;15.60;1.00;;;;;;5056544;28;20032;-32
2023/01/05 13:41:41;;;;;;;7.78;1.83;;;15.60;1.00;;;;;;5072515;28;20120;-32
2023/01/05 13:44:22;;;;;;;12.07;1.95;;;15.60;1.00;;;;;;5072053;28;20079;-32
2023/01/05 13:47:14;;;;;;;5.43;1.58;;;15.60;1.00;;;;;;5071672;28;20165;-32
2023/01/05 13:50:22;;;;;;;9.80;2.03;;;15.60;1.00;;;;;;5072424;28;20055;-32
2023/01/05 13:53:22;;;;;;;9.43;1.85;;;15.60;1.00;;;;;;5042013;28;20114;-32
2023/01/05 13:56:01;;;;;;;9.75;2.05;;;15.60;1.00;;;;;;5072163;28;20083;-32
2023/01/05 13:59:01;;;;;;;10.15;2.75;;;15.60;1.00;;;;;;5072425;28;20053;-32
2023/01/05 14:01:49;;;;;;;11.27;2.25;;;15.60;1.00;;;;;;5061059;28;20056;-31
2023/01/05 14:04:25;;;;;;;6.55;1.60;;;15.60;1.00;;;;;;5071615;28;20090;-32